sensor_id;sensor_type;location;lat;lon;timestamp;P1;durP1;ratioP1;P2;durP2;ratioP2
49103;SDS011;34915;52.926;11.116;2023-05-10T00:02:14;2.13;;;1.93;;
49103;SDS011;34915;52.926;11.116;2023-05-10T00:04:39;3.33;;;2.27;;
49103;SDS011;34915;52.926;11.116;2023-05-10T00:07:05;2.73;;;2.30;;
49103;SDS011;34915;52.926;11.116;2023-05-10T00:09:30;2.77;;;2.07;;
49103;SDS011;34915;52.926;11.116;2023-05-10T00:11:56;3.90;;;2.40;;
49103;SDS011;34915;52.926;11.116;2023-05-10T00:14:23;3.13;;;2.50;;
49103;SDS011;34915;52.926;11.116;2023-05-10T00:16:49;2.80;;;2.47;;
49103;SDS011;34915;52.926;11.116;2023-05-10T00:19:14;3.57;;;2.57;;
49103;SDS011;34915;52.926;11.116;2023-05-10T00:21:40;3.73;;;2.43;;
49103;SDS011;34915;52.926;11.116;2023-05-10T00:24:05;3.97;;;2.20;;
49103;SDS011;34915;52.926;11.116;2023-05-10T00:26:31;3.20;;;2.40;;
49103;SDS011;34915;52.926;11.116;2023-05-10T00:28:56;2.70;;;1.80;;
49103;SDS011;34915;52.926;11.116;2023-05-10T00:31:25;2.87;;;2.20;;
49103;SDS011;34915;52.926;11.116;2023-05-10T00:33:51;2.30;;;2.10;;
49103;SDS011;34915;52.926;11.116;2023-05-10T00:36:16;2.50;;;2.10;;
49103;SDS011;34915;52.926;11.116;2023-05-10T00:38:42;2.50;;;2.00;;
49103;SDS011;34915;52.926;11.116;2023-05-10T00:41:07;2.87;;;2.20;;
49103;SDS011;34915;52.926;11.116;2023-05-10T00:43:33;3.27;;;2.20;;
49103;SDS011;34915;52.926;11.116;2023-05-10T00:45:59;5.67;;;2.67;;
49103;SDS011;34915;52.926;11.116;2023-05-10T00:48:24;3.07;;;2.30;;
49103;SDS011;34915;52.926;11.116;2023-05-10T00:50:50;4.70;;;2.27;;
49103;SDS011;34915;52.926;11.116;2023-05-10T00:53:16;2.70;;;2.10;;
49103;SDS011;34915;52.926;11.116;2023-05-10T00:55:42;2.23;;;2.03;;
49103;SDS011;34915;52.926;11.116;2023-05-10T00:58:07;2.93;;;2.57;;
49103;SDS011;34915;52.926;11.116;2023-05-10T01:00:36;2.40;;;2.20;;
49103;SDS011;34915;52.926;11.116;2023-05-10T01:03:03;2.57;;;2.10;;
49103;SDS011;34915;52.926;11.116;2023-05-10T01:05:29;2.30;;;2.07;;
49103;SDS011;34915;52.926;11.116;2023-05-10T01:07:55;3.63;;;2.50;;
49103;SDS011;34915;52.926;11.116;2023-05-10T01:10:21;2.17;;;1.97;;
49103;SDS011;34915;52.926;11.116;2023-05-10T01:12:47;3.20;;;2.20;;
49103;SDS011;34915;52.926;11.116;2023-05-10T01:15:15;3.13;;;2.23;;
49103;SDS011;34915;52.926;11.116;2023-05-10T01:17:44;3.13;;;2.50;;
49103;SDS011;34915;52.926;11.116;2023-05-10T01:20:14;4.03;;;2.60;;
49103;SDS011;34915;52.926;11.116;2023-05-10T01:28:17;4.83;;;2.30;;
49103;SDS011;34915;52.926;11.116;2023-05-10T01:31:03;3.40;;;2.60;;
49103;SDS011;34915;52.926;11.116;2023-05-10T01:36:19;2.97;;;2.30;;
49103;SDS011;34915;52.926;11.116;2023-05-10T01:38:57;2.43;;;2.23;;
49103;SDS011;34915;52.926;11.116;2023-05-10T01:46:53;2.53;;;2.33;;
49103;SDS011;34915;52.926;11.116;2023-05-10T01:49:32;2.73;;;2.30;;
49103;SDS011;34915;52.926;11.116;2023-05-10T01:52:22;2.10;;;1.90;;
49103;SDS011;34915;52.926;11.116;2023-05-10T01:55:01;2.40;;;2.03;;
49103;SDS011;34915;52.926;11.116;2023-05-10T01:57:32;2.30;;;2.00;;
49103;SDS011;34915;52.926;11.116;2023-05-10T02:00:01;2.87;;;2.50;;
49103;SDS011;34915;52.926;11.116;2023-05-10T02:02:28;2.20;;;1.90;;
49103;SDS011;34915;52.926;11.116;2023-05-10T02:04:58;3.03;;;2.30;;
49103;SDS011;34915;52.926;11.116;2023-05-10T02:07:24;3.23;;;2.50;;
49103;SDS011;34915;52.926;11.116;2023-05-10T02:09:53;3.50;;;2.60;;
49103;SDS011;34915;52.926;11.116;2023-05-10T02:12:19;3.93;;;2.10;;
49103;SDS011;34915;52.926;11.116;2023-05-10T02:14:47;2.60;;;2.33;;
49103;SDS011;34915;52.926;11.116;2023-05-10T02:17:16;3.17;;;2.57;;
49103;SDS011;34915;52.926;11.116;2023-05-10T02:19:42;4.03;;;2.47;;
49103;SDS011;34915;52.926;11.116;2023-05-10T02:22:09;3.83;;;2.47;;
49103;SDS011;34915;52.926;11.116;2023-05-10T02:24:35;2.50;;;2.30;;
49103;SDS011;34915;52.926;11.116;2023-05-10T02:27:02;5.10;;;2.47;;
49103;SDS011;34915;52.926;11.116;2023-05-10T02:29:29;2.70;;;2.20;;
49103;SDS011;34915;52.926;11.116;2023-05-10T02:31:57;3.17;;;2.33;;
49103;SDS011;34915;52.926;11.116;2023-05-10T02:34:27;2.67;;;2.43;;
49103;SDS011;34915;52.926;11.116;2023-05-10T02:36:55;3.53;;;2.80;;
49103;SDS011;34915;52.926;11.116;2023-05-10T02:39:21;6.07;;;2.20;;
49103;SDS011;34915;52.926;11.116;2023-05-10T02:41:48;4.93;;;2.47;;
49103;SDS011;34915;52.926;11.116;2023-05-10T02:44:15;3.90;;;2.73;;
49103;SDS011;34915;52.926;11.116;2023-05-10T02:46:43;3.87;;;2.53;;
49103;SDS011;34915;52.926;11.116;2023-05-10T02:49:09;3.43;;;2.53;;
49103;SDS011;34915;52.926;11.116;2023-05-10T02:51:36;2.60;;;2.40;;
49103;SDS011;34915;52.926;11.116;2023-05-10T02:56:57;3.77;;;2.47;;
49103;SDS011;34915;52.926;11.116;2023-05-10T02:59:28;3.23;;;2.27;;
49103;SDS011;34915;52.926;11.116;2023-05-10T03:01:53;2.70;;;2.30;;
49103;SDS011;34915;52.926;11.116;2023-05-10T03:04:19;4.67;;;2.80;;
49103;SDS011;34915;52.926;11.116;2023-05-10T03:06:44;3.03;;;2.43;;
49103;SDS011;34915;52.926;11.116;2023-05-10T03:09:10;3.23;;;2.67;;
49103;SDS011;34915;52.926;11.116;2023-05-10T03:11:48;3.87;;;2.70;;
49103;SDS011;34915;52.926;11.116;2023-05-10T03:17:30;2.97;;;2.50;;
49103;SDS011;34915;52.926;11.116;2023-05-10T03:20:03;3.73;;;2.50;;
49103;SDS011;34915;52.926;11.116;2023-05-10T03:22:41;4.73;;;2.73;;
49103;SDS011;34915;52.926;11.116;2023-05-10T03:25:12;2.60;;;2.30;;
49103;SDS011;34915;52.926;11.116;2023-05-10T03:27:41;2.33;;;2.10;;
49103;SDS011;34915;52.926;11.116;2023-05-10T03:30:12;4.37;;;2.70;;
49103;SDS011;34915;52.926;11.116;2023-05-10T03:32:38;3.53;;;2.50;;
49103;SDS011;34915;52.926;11.116;2023-05-10T03:35:07;3.63;;;3.07;;
49103;SDS011;34915;52.926;11.116;2023-05-10T03:37:33;3.03;;;2.70;;
49103;SDS011;34915;52.926;11.116;2023-05-10T03:40:00;3.20;;;2.73;;
49103;SDS011;34915;52.926;11.116;2023-05-10T03:42:25;2.93;;;2.63;;
49103;SDS011;34915;52.926;11.116;2023-05-10T03:44:51;3.40;;;2.33;;
49103;SDS011;34915;52.926;11.116;2023-05-10T03:47:16;6.43;;;2.93;;
49103;SDS011;34915;52.926;11.116;2023-05-10T03:49:42;3.13;;;2.73;;
49103;SDS011;34915;52.926;11.116;2023-05-10T03:52:08;2.70;;;2.30;;
49103;SDS011;34915;52.926;11.116;2023-05-10T03:54:33;3.03;;;2.33;;
49103;SDS011;34915;52.926;11.116;2023-05-10T03:56:59;3.40;;;2.77;;
49103;SDS011;34915;52.926;11.116;2023-05-10T03:59:26;3.00;;;2.47;;
49103;SDS011;34915;52.926;11.116;2023-05-10T04:01:54;3.63;;;2.43;;
49103;SDS011;34915;52.926;11.116;2023-05-10T04:04:19;3.87;;;2.40;;
49103;SDS011;34915;52.926;11.116;2023-05-10T04:06:46;3.67;;;2.93;;
49103;SDS011;34915;52.926;11.116;2023-05-10T04:09:12;5.53;;;4.47;;
49103;SDS011;34915;52.926;11.116;2023-05-10T04:11:37;3.70;;;3.30;;
49103;SDS011;34915;52.926;11.116;2023-05-10T04:14:03;3.10;;;2.60;;
49103;SDS011;34915;52.926;11.116;2023-05-10T04:16:28;4.97;;;2.90;;
49103;SDS011;34915;52.926;11.116;2023-05-10T04:18:54;2.90;;;2.53;;
49103;SDS011;34915;52.926;11.116;2023-05-10T04:21:20;3.40;;;2.63;;
49103;SDS011;34915;52.926;11.116;2023-05-10T04:23:45;2.57;;;2.33;;
49103;SDS011;34915;52.926;11.116;2023-05-10T04:26:11;4.07;;;3.37;;
49103;SDS011;34915;52.926;11.116;2023-05-10T04:28:38;3.33;;;2.47;;
49103;SDS011;34915;52.926;11.116;2023-05-10T04:31:04;3.20;;;2.87;;
49103;SDS011;34915;52.926;11.116;2023-05-10T04:33:31;3.27;;;2.77;;
49103;SDS011;34915;52.926;11.116;2023-05-10T04:35:57;2.87;;;2.57;;
49103;SDS011;34915;52.926;11.116;2023-05-10T04:38:23;3.60;;;2.60;;
49103;SDS011;34915;52.926;11.116;2023-05-10T04:40:48;2.60;;;2.30;;
49103;SDS011;34915;52.926;11.116;2023-05-10T04:43:14;4.00;;;3.40;;
49103;SDS011;34915;52.926;11.116;2023-05-10T04:45:40;2.80;;;2.60;;
49103;SDS011;34915;52.926;11.116;2023-05-10T04:48:05;4.27;;;2.90;;
49103;SDS011;34915;52.926;11.116;2023-05-10T04:50:31;3.57;;;2.70;;
49103;SDS011;34915;52.926;11.116;2023-05-10T04:52:56;2.77;;;2.27;;
49103;SDS011;34915;52.926;11.116;2023-05-10T04:55:22;4.27;;;3.10;;
49103;SDS011;34915;52.926;11.116;2023-05-10T04:57:50;2.87;;;2.40;;
49103;SDS011;34915;52.926;11.116;2023-05-10T05:00:16;3.53;;;2.73;;
49103;SDS011;34915;52.926;11.116;2023-05-10T05:02:42;4.93;;;2.67;;
49103;SDS011;34915;52.926;11.116;2023-05-10T05:05:11;2.87;;;2.30;;
49103;SDS011;34915;52.926;11.116;2023-05-10T05:07:37;3.17;;;2.50;;
49103;SDS011;34915;52.926;11.116;2023-05-10T05:10:04;3.57;;;2.77;;
49103;SDS011;34915;52.926;11.116;2023-05-10T05:12:33;2.50;;;2.30;;
49103;SDS011;34915;52.926;11.116;2023-05-10T05:14:59;2.67;;;2.47;;
49103;SDS011;34915;52.926;11.116;2023-05-10T05:17:25;3.77;;;2.93;;
49103;SDS011;34915;52.926;11.116;2023-05-10T05:19:50;3.50;;;2.60;;
49103;SDS011;34915;52.926;11.116;2023-05-10T05:22:16;4.77;;;2.67;;
49103;SDS011;34915;52.926;11.116;2023-05-10T05:24:42;3.50;;;2.57;;
49103;SDS011;34915;52.926;11.116;2023-05-10T05:27:09;3.70;;;2.90;;
49103;SDS011;34915;52.926;11.116;2023-05-10T05:29:35;3.60;;;2.60;;
49103;SDS011;34915;52.926;11.116;2023-05-10T05:32:01;3.60;;;2.90;;
49103;SDS011;34915;52.926;11.116;2023-05-10T05:34:26;3.37;;;2.57;;
49103;SDS011;34915;52.926;11.116;2023-05-10T05:36:52;3.30;;;3.00;;
49103;SDS011;34915;52.926;11.116;2023-05-10T05:39:17;3.77;;;2.60;;
49103;SDS011;34915;52.926;11.116;2023-05-10T05:41:43;4.40;;;2.80;;
49103;SDS011;34915;52.926;11.116;2023-05-10T05:44:09;10.33;;;3.37;;
49103;SDS011;34915;52.926;11.116;2023-05-10T05:46:35;4.63;;;2.70;;
49103;SDS011;34915;52.926;11.116;2023-05-10T05:49:00;2.80;;;2.33;;
49103;SDS011;34915;52.926;11.116;2023-05-10T05:51:26;4.07;;;2.60;;
49103;SDS011;34915;52.926;11.116;2023-05-10T05:53:52;2.57;;;2.37;;
49103;SDS011;34915;52.926;11.116;2023-05-10T05:56:20;3.37;;;2.33;;
49103;SDS011;34915;52.926;11.116;2023-05-10T05:58:52;3.83;;;2.93;;
49103;SDS011;34915;52.926;11.116;2023-05-10T06:01:18;3.37;;;2.67;;
49103;SDS011;34915;52.926;11.116;2023-05-10T06:03:43;2.97;;;2.10;;
49103;SDS011;34915;52.926;11.116;2023-05-10T06:06:09;3.83;;;2.80;;
49103;SDS011;34915;52.926;11.116;2023-05-10T06:08:34;3.13;;;2.87;;
49103;SDS011;34915;52.926;11.116;2023-05-10T06:11:00;2.77;;;2.57;;
49103;SDS011;34915;52.926;11.116;2023-05-10T06:13:26;3.93;;;2.20;;
49103;SDS011;34915;52.926;11.116;2023-05-10T06:16:00;3.27;;;2.73;;
49103;SDS011;34915;52.926;11.116;2023-05-10T06:18:26;3.17;;;2.27;;
49103;SDS011;34915;52.926;11.116;2023-05-10T06:20:52;3.77;;;2.33;;
49103;SDS011;34915;52.926;11.116;2023-05-10T06:23:17;3.13;;;2.53;;
49103;SDS011;34915;52.926;11.116;2023-05-10T06:25:43;2.20;;;2.00;;
49103;SDS011;34915;52.926;11.116;2023-05-10T06:28:09;2.87;;;2.50;;
49103;SDS011;34915;52.926;11.116;2023-05-10T06:30:35;2.47;;;2.20;;
49103;SDS011;34915;52.926;11.116;2023-05-10T06:33:01;3.07;;;2.23;;
49103;SDS011;34915;52.926;11.116;2023-05-10T06:35:27;2.97;;;2.40;;
49103;SDS011;34915;52.926;11.116;2023-05-10T06:37:53;2.50;;;2.30;;
49103;SDS011;34915;52.926;11.116;2023-05-10T06:40:19;2.60;;;2.40;;
49103;SDS011;34915;52.926;11.116;2023-05-10T06:42:45;2.43;;;2.23;;
49103;SDS011;34915;52.926;11.116;2023-05-10T06:45:14;3.00;;;2.63;;
49103;SDS011;34915;52.926;11.116;2023-05-10T06:47:40;2.40;;;2.10;;
49103;SDS011;34915;52.926;11.116;2023-05-10T06:50:09;2.30;;;2.10;;
49103;SDS011;34915;52.926;11.116;2023-05-10T06:52:36;3.57;;;2.27;;
49103;SDS011;34915;52.926;11.116;2023-05-10T06:55:03;2.63;;;2.27;;
49103;SDS011;34915;52.926;11.116;2023-05-10T06:57:29;3.57;;;2.57;;
49103;SDS011;34915;52.926;11.116;2023-05-10T06:59:55;3.17;;;2.57;;
49103;SDS011;34915;52.926;11.116;2023-05-10T07:02:21;2.70;;;2.40;;
49103;SDS011;34915;52.926;11.116;2023-05-10T07:04:47;3.03;;;2.40;;
49103;SDS011;34915;52.926;11.116;2023-05-10T07:07:13;2.40;;;2.20;;
49103;SDS011;34915;52.926;11.116;2023-05-10T07:09:39;2.23;;;2.00;;
49103;SDS011;34915;52.926;11.116;2023-05-10T07:12:05;2.63;;;2.00;;
49103;SDS011;34915;52.926;11.116;2023-05-10T07:14:31;3.10;;;2.50;;
49103;SDS011;34915;52.926;11.116;2023-05-10T07:16:57;2.00;;;1.73;;
49103;SDS011;34915;52.926;11.116;2023-05-10T07:19:22;2.87;;;2.10;;
49103;SDS011;34915;52.926;11.116;2023-05-10T07:21:48;3.43;;;2.20;;
49103;SDS011;34915;52.926;11.116;2023-05-10T07:24:13;2.77;;;2.37;;
49103;SDS011;34915;52.926;11.116;2023-05-10T07:26:41;2.30;;;2.00;;
49103;SDS011;34915;52.926;11.116;2023-05-10T07:29:07;2.67;;;2.40;;
49103;SDS011;34915;52.926;11.116;2023-05-10T07:31:32;3.33;;;2.20;;
49103;SDS011;34915;52.926;11.116;2023-05-10T07:33:58;2.60;;;2.30;;
49103;SDS011;34915;52.926;11.116;2023-05-10T07:36:23;2.27;;;1.93;;
49103;SDS011;34915;52.926;11.116;2023-05-10T07:38:49;2.17;;;1.80;;
49103;SDS011;34915;52.926;11.116;2023-05-10T07:41:17;2.47;;;2.23;;
49103;SDS011;34915;52.926;11.116;2023-05-10T07:43:43;2.73;;;2.17;;
49103;SDS011;34915;52.926;11.116;2023-05-10T07:46:09;2.37;;;1.97;;
49103;SDS011;34915;52.926;11.116;2023-05-10T07:48:36;2.17;;;1.97;;
49103;SDS011;34915;52.926;11.116;2023-05-10T07:51:02;2.60;;;2.20;;
49103;SDS011;34915;52.926;11.116;2023-05-10T07:53:28;2.60;;;2.27;;
49103;SDS011;34915;52.926;11.116;2023-05-10T07:55:54;2.20;;;2.00;;
49103;SDS011;34915;52.926;11.116;2023-05-10T07:58:23;4.17;;;2.50;;
49103;SDS011;34915;52.926;11.116;2023-05-10T08:00:49;1.80;;;1.70;;
49103;SDS011;34915;52.926;11.116;2023-05-10T08:03:15;2.37;;;2.00;;
49103;SDS011;34915;52.926;11.116;2023-05-10T08:05:41;2.20;;;2.00;;
49103;SDS011;34915;52.926;11.116;2023-05-10T08:08:06;4.67;;;2.20;;
49103;SDS011;34915;52.926;11.116;2023-05-10T08:10:32;2.70;;;2.10;;
49103;SDS011;34915;52.926;11.116;2023-05-10T08:12:58;4.13;;;2.17;;
49103;SDS011;34915;52.926;11.116;2023-05-10T08:15:24;2.40;;;2.20;;
49103;SDS011;34915;52.926;11.116;2023-05-10T08:17:50;6.10;;;2.00;;
49103;SDS011;34915;52.926;11.116;2023-05-10T08:20:16;2.50;;;2.30;;
49103;SDS011;34915;52.926;11.116;2023-05-10T08:22:47;2.37;;;2.17;;
49103;SDS011;34915;52.926;11.116;2023-05-10T08:25:12;2.30;;;2.10;;
49103;SDS011;34915;52.926;11.116;2023-05-10T08:27:38;3.77;;;2.47;;
49103;SDS011;34915;52.926;11.116;2023-05-10T08:30:03;2.87;;;2.27;;
49103;SDS011;34915;52.926;11.116;2023-05-10T08:32:30;2.93;;;2.63;;
49103;SDS011;34915;52.926;11.116;2023-05-10T08:34:55;3.17;;;2.33;;
49103;SDS011;34915;52.926;11.116;2023-05-10T08:37:22;2.57;;;2.30;;
49103;SDS011;34915;52.926;11.116;2023-05-10T08:39:48;1.97;;;1.87;;
49103;SDS011;34915;52.926;11.116;2023-05-10T08:42:15;2.67;;;2.20;;
49103;SDS011;34915;52.926;11.116;2023-05-10T08:44:44;1.93;;;1.83;;
49103;SDS011;34915;52.926;11.116;2023-05-10T08:47:13;2.20;;;1.97;;
49103;SDS011;34915;52.926;11.116;2023-05-10T08:49:41;3.27;;;2.00;;
49103;SDS011;34915;52.926;11.116;2023-05-10T08:52:08;3.77;;;2.50;;
49103;SDS011;34915;52.926;11.116;2023-05-10T08:54:38;2.27;;;2.03;;
49103;SDS011;34915;52.926;11.116;2023-05-10T08:57:04;2.70;;;2.50;;
49103;SDS011;34915;52.926;11.116;2023-05-10T08:59:30;2.10;;;1.90;;
49103;SDS011;34915;52.926;11.116;2023-05-10T09:01:57;3.30;;;2.20;;
49103;SDS011;34915;52.926;11.116;2023-05-10T09:04:23;4.63;;;1.80;;
49103;SDS011;34915;52.926;11.116;2023-05-10T09:06:49;2.87;;;2.13;;
49103;SDS011;34915;52.926;11.116;2023-05-10T09:09:15;4.50;;;1.87;;
49103;SDS011;34915;52.926;11.116;2023-05-10T09:11:42;3.80;;;2.10;;
49103;SDS011;34915;52.926;11.116;2023-05-10T09:14:08;6.10;;;2.23;;
49103;SDS011;34915;52.926;11.116;2023-05-10T09:16:34;3.83;;;2.30;;
49103;SDS011;34915;52.926;11.116;2023-05-10T09:19:00;2.13;;;1.90;;
49103;SDS011;34915;52.926;11.116;2023-05-10T09:21:25;4.63;;;1.83;;
49103;SDS011;34915;52.926;11.116;2023-05-10T09:23:51;2.90;;;2.30;;
49103;SDS011;34915;52.926;11.116;2023-05-10T09:26:25;3.33;;;2.20;;
49103;SDS011;34915;52.926;11.116;2023-05-10T09:28:52;4.50;;;1.93;;
49103;SDS011;34915;52.926;11.116;2023-05-10T09:31:19;4.83;;;2.20;;
49103;SDS011;34915;52.926;11.116;2023-05-10T09:33:45;3.67;;;2.77;;
49103;SDS011;34915;52.926;11.116;2023-05-10T09:36:12;3.10;;;1.97;;
49103;SDS011;34915;52.926;11.116;2023-05-10T09:38:51;4.30;;;2.17;;
49103;SDS011;34915;52.926;11.116;2023-05-10T09:41:18;3.57;;;2.03;;
49103;SDS011;34915;52.926;11.116;2023-05-10T09:43:45;3.00;;;2.50;;
49103;SDS011;34915;52.926;11.116;2023-05-10T09:46:13;2.30;;;2.10;;
49103;SDS011;34915;52.926;11.116;2023-05-10T09:48:44;2.77;;;2.23;;
49103;SDS011;34915;52.926;11.116;2023-05-10T09:51:24;3.63;;;2.20;;
49103;SDS011;34915;52.926;11.116;2023-05-10T09:54:13;2.33;;;1.93;;
49103;SDS011;34915;52.926;11.116;2023-05-10T09:56:39;5.87;;;2.30;;
49103;SDS011;34915;52.926;11.116;2023-05-10T09:59:06;3.33;;;2.40;;
49103;SDS011;34915;52.926;11.116;2023-05-10T10:01:33;2.90;;;2.07;;
49103;SDS011;34915;52.926;11.116;2023-05-10T10:03:59;3.73;;;2.10;;
49103;SDS011;34915;52.926;11.116;2023-05-10T10:06:28;3.83;;;2.37;;
49103;SDS011;34915;52.926;11.116;2023-05-10T10:08:54;2.33;;;2.07;;
49103;SDS011;34915;52.926;11.116;2023-05-10T10:11:21;2.53;;;2.30;;
49103;SDS011;34915;52.926;11.116;2023-05-10T10:13:48;2.70;;;2.43;;
49103;SDS011;34915;52.926;11.116;2023-05-10T10:16:14;3.13;;;2.50;;
49103;SDS011;34915;52.926;11.116;2023-05-10T10:18:40;3.27;;;2.60;;
49103;SDS011;34915;52.926;11.116;2023-05-10T10:21:07;2.30;;;2.10;;
49103;SDS011;34915;52.926;11.116;2023-05-10T10:23:35;2.20;;;2.00;;
49103;SDS011;34915;52.926;11.116;2023-05-10T10:26:02;3.23;;;2.93;;
49103;SDS011;34915;52.926;11.116;2023-05-10T10:28:35;2.63;;;2.37;;
49103;SDS011;34915;52.926;11.116;2023-05-10T10:31:18;3.03;;;2.57;;
49103;SDS011;34915;52.926;11.116;2023-05-10T10:36:20;2.70;;;2.27;;
49103;SDS011;34915;52.926;11.116;2023-05-10T10:47:04;2.93;;;2.73;;
49103;SDS011;34915;52.926;11.116;2023-05-10T10:52:14;4.33;;;2.53;;
49103;SDS011;34915;52.926;11.116;2023-05-10T10:57:28;3.83;;;2.57;;
49103;SDS011;34915;52.926;11.116;2023-05-10T11:02:49;4.93;;;2.50;;
49103;SDS011;34915;52.926;11.116;2023-05-10T11:08:00;2.97;;;2.60;;
49103;SDS011;34915;52.926;11.116;2023-05-10T11:10:33;4.77;;;3.07;;
49103;SDS011;34915;52.926;11.116;2023-05-10T11:12:59;3.50;;;3.03;;
49103;SDS011;34915;52.926;11.116;2023-05-10T11:15:38;3.20;;;2.60;;
49103;SDS011;34915;52.926;11.116;2023-05-10T11:18:21;5.07;;;3.67;;
49103;SDS011;34915;52.926;11.116;2023-05-10T11:21:00;4.10;;;3.13;;
49103;SDS011;34915;52.926;11.116;2023-05-10T11:26:13;4.33;;;3.60;;
49103;SDS011;34915;52.926;11.116;2023-05-10T11:28:46;4.73;;;3.80;;
49103;SDS011;34915;52.926;11.116;2023-05-10T11:31:16;4.10;;;3.70;;
49103;SDS011;34915;52.926;11.116;2023-05-10T11:33:45;5.47;;;4.40;;
49103;SDS011;34915;52.926;11.116;2023-05-10T11:36:16;4.77;;;4.37;;
49103;SDS011;34915;52.926;11.116;2023-05-10T11:38:43;6.23;;;4.87;;
49103;SDS011;34915;52.926;11.116;2023-05-10T11:41:09;5.27;;;4.57;;
49103;SDS011;34915;52.926;11.116;2023-05-10T11:43:36;5.23;;;4.50;;
49103;SDS011;34915;52.926;11.116;2023-05-10T11:46:04;6.57;;;4.67;;
49103;SDS011;34915;52.926;11.116;2023-05-10T11:48:31;6.10;;;5.50;;
49103;SDS011;34915;52.926;11.116;2023-05-10T11:50:57;6.17;;;4.87;;
49103;SDS011;34915;52.926;11.116;2023-05-10T11:53:24;6.17;;;5.30;;
49103;SDS011;34915;52.926;11.116;2023-05-10T11:55:52;6.13;;;5.43;;
49103;SDS011;34915;52.926;11.116;2023-05-10T11:58:18;5.93;;;5.20;;
49103;SDS011;34915;52.926;11.116;2023-05-10T12:00:44;6.43;;;5.47;;
49103;SDS011;34915;52.926;11.116;2023-05-10T12:03:10;5.23;;;4.53;;
49103;SDS011;34915;52.926;11.116;2023-05-10T12:05:36;5.10;;;4.60;;
49103;SDS011;34915;52.926;11.116;2023-05-10T12:08:21;5.70;;;4.00;;
49103;SDS011;34915;52.926;11.116;2023-05-10T12:10:48;6.20;;;4.67;;
49103;SDS011;34915;52.926;11.116;2023-05-10T12:13:14;4.67;;;4.03;;
49103;SDS011;34915;52.926;11.116;2023-05-10T12:15:41;4.83;;;4.40;;
49103;SDS011;34915;52.926;11.116;2023-05-10T12:18:10;4.80;;;4.23;;
49103;SDS011;34915;52.926;11.116;2023-05-10T12:20:37;4.73;;;4.10;;
49103;SDS011;34915;52.926;11.116;2023-05-10T12:23:03;5.60;;;4.97;;
49103;SDS011;34915;52.926;11.116;2023-05-10T12:25:31;5.63;;;5.03;;
49103;SDS011;34915;52.926;11.116;2023-05-10T12:27:59;5.73;;;4.60;;
49103;SDS011;34915;52.926;11.116;2023-05-10T12:30:28;6.73;;;5.07;;
49103;SDS011;34915;52.926;11.116;2023-05-10T12:32:59;7.13;;;5.43;;
49103;SDS011;34915;52.926;11.116;2023-05-10T12:35:29;5.40;;;4.57;;
49103;SDS011;34915;52.926;11.116;2023-05-10T12:37:56;4.23;;;3.83;;
49103;SDS011;34915;52.926;11.116;2023-05-10T12:40:22;6.00;;;3.87;;
49103;SDS011;34915;52.926;11.116;2023-05-10T12:42:47;5.17;;;4.50;;
49103;SDS011;34915;52.926;11.116;2023-05-10T12:45:13;4.60;;;4.17;;
49103;SDS011;34915;52.926;11.116;2023-05-10T12:47:39;4.97;;;4.47;;
49103;SDS011;34915;52.926;11.116;2023-05-10T12:50:05;5.90;;;4.43;;
49103;SDS011;34915;52.926;11.116;2023-05-10T12:52:31;5.47;;;4.40;;
49103;SDS011;34915;52.926;11.116;2023-05-10T12:54:57;6.03;;;4.53;;
49103;SDS011;34915;52.926;11.116;2023-05-10T12:57:24;4.43;;;4.03;;
49103;SDS011;34915;52.926;11.116;2023-05-10T12:59:50;4.90;;;4.20;;
49103;SDS011;34915;52.926;11.116;2023-05-10T13:02:15;5.23;;;3.83;;
49103;SDS011;34915;52.926;11.116;2023-05-10T13:04:43;5.47;;;3.60;;
49103;SDS011;34915;52.926;11.116;2023-05-10T13:07:10;3.87;;;3.47;;
49103;SDS011;34915;52.926;11.116;2023-05-10T13:09:35;3.00;;;2.80;;
49103;SDS011;34915;52.926;11.116;2023-05-10T13:12:01;4.60;;;3.80;;
49103;SDS011;34915;52.926;11.116;2023-05-10T13:14:27;4.17;;;3.77;;
49103;SDS011;34915;52.926;11.116;2023-05-10T13:16:53;3.13;;;2.83;;
49103;SDS011;34915;52.926;11.116;2023-05-10T13:19:19;3.53;;;3.10;;
49103;SDS011;34915;52.926;11.116;2023-05-10T13:21:47;3.93;;;3.57;;
49103;SDS011;34915;52.926;11.116;2023-05-10T13:24:12;2.60;;;2.40;;
49103;SDS011;34915;52.926;11.116;2023-05-10T13:26:42;4.10;;;3.70;;
49103;SDS011;34915;52.926;11.116;2023-05-10T13:29:08;4.47;;;3.77;;
49103;SDS011;34915;52.926;11.116;2023-05-10T13:31:34;3.33;;;3.03;;
49103;SDS011;34915;52.926;11.116;2023-05-10T13:34:01;3.33;;;2.60;;
49103;SDS011;34915;52.926;11.116;2023-05-10T13:36:27;2.60;;;2.40;;
49103;SDS011;34915;52.926;11.116;2023-05-10T13:38:55;3.10;;;2.80;;
49103;SDS011;34915;52.926;11.116;2023-05-10T13:41:21;2.10;;;1.90;;
49103;SDS011;34915;52.926;11.116;2023-05-10T13:43:46;2.33;;;2.13;;
49103;SDS011;34915;52.926;11.116;2023-05-10T13:46:14;2.30;;;2.10;;
49103;SDS011;34915;52.926;11.116;2023-05-10T13:48:39;1.97;;;1.87;;
49103;SDS011;34915;52.926;11.116;2023-05-10T13:51:05;3.40;;;2.00;;
49103;SDS011;34915;52.926;11.116;2023-05-10T13:53:30;2.13;;;1.93;;
49103;SDS011;34915;52.926;11.116;2023-05-10T13:55:56;3.00;;;2.03;;
49103;SDS011;34915;52.926;11.116;2023-05-10T13:58:22;1.90;;;1.80;;
49103;SDS011;34915;52.926;11.116;2023-05-10T14:00:48;2.97;;;1.80;;
49103;SDS011;34915;52.926;11.116;2023-05-10T14:03:14;1.63;;;1.53;;
49103;SDS011;34915;52.926;11.116;2023-05-10T14:05:39;1.67;;;1.57;;
49103;SDS011;34915;52.926;11.116;2023-05-10T14:08:05;1.50;;;1.40;;
49103;SDS011;34915;52.926;11.116;2023-05-10T14:10:30;1.53;;;1.43;;
49103;SDS011;34915;52.926;11.116;2023-05-10T14:12:56;1.93;;;1.70;;
49103;SDS011;34915;52.926;11.116;2023-05-10T14:15:22;1.63;;;1.53;;
49103;SDS011;34915;52.926;11.116;2023-05-10T14:17:48;1.43;;;1.33;;
49103;SDS011;34915;52.926;11.116;2023-05-10T14:20:13;1.70;;;1.60;;
49103;SDS011;34915;52.926;11.116;2023-05-10T14:22:39;1.50;;;1.40;;
49103;SDS011;34915;52.926;11.116;2023-05-10T14:25:05;1.73;;;1.40;;
49103;SDS011;34915;52.926;11.116;2023-05-10T14:27:31;2.90;;;1.20;;
49103;SDS011;34915;52.926;11.116;2023-05-10T14:29:57;1.10;;;1.00;;
49103;SDS011;34915;52.926;11.116;2023-05-10T14:32:23;1.07;;;1.00;;
49103;SDS011;34915;52.926;11.116;2023-05-10T14:34:48;0.90;;;0.90;;
49103;SDS011;34915;52.926;11.116;2023-05-10T14:37:14;1.00;;;1.00;;
49103;SDS011;34915;52.926;11.116;2023-05-10T14:39:42;1.10;;;1.10;;
49103;SDS011;34915;52.926;11.116;2023-05-10T14:42:08;1.23;;;1.13;;
49103;SDS011;34915;52.926;11.116;2023-05-10T14:44:34;1.67;;;1.10;;
49103;SDS011;34915;52.926;11.116;2023-05-10T14:46:59;1.77;;;1.50;;
49103;SDS011;34915;52.926;11.116;2023-05-10T14:49:25;3.40;;;1.17;;
49103;SDS011;34915;52.926;11.116;2023-05-10T14:51:51;1.00;;;1.00;;
49103;SDS011;34915;52.926;11.116;2023-05-10T14:54:17;1.23;;;1.10;;
49103;SDS011;34915;52.926;11.116;2023-05-10T14:56:42;1.40;;;1.30;;
49103;SDS011;34915;52.926;11.116;2023-05-10T14:59:08;1.40;;;1.30;;
49103;SDS011;34915;52.926;11.116;2023-05-10T15:01:33;1.33;;;1.23;;
49103;SDS011;34915;52.926;11.116;2023-05-10T15:04:02;1.50;;;1.40;;
49103;SDS011;34915;52.926;11.116;2023-05-10T15:06:33;1.67;;;1.57;;
49103;SDS011;34915;52.926;11.116;2023-05-10T15:08:59;1.73;;;1.63;;
49103;SDS011;34915;52.926;11.116;2023-05-10T15:11:26;1.30;;;1.30;;
49103;SDS011;34915;52.926;11.116;2023-05-10T15:13:51;1.17;;;1.10;;
49103;SDS011;34915;52.926;11.116;2023-05-10T15:16:17;1.50;;;1.40;;
49103;SDS011;34915;52.926;11.116;2023-05-10T15:18:44;1.80;;;1.47;;